Forest Hill, Maryland
Current Conditions -  °F | °C
As of 8:55 AM on Thursday 23 Oct 2014 (Local Time) from KMTN Reporting Station
Broken Clouds Broken Clouds  
Wind Chill: 55°   Ceiling: 8000
Heat Index: 55°   Visibility: 10mi
Dew Point: 46°   Wind: 16mph
Humidity: 72%   Direction: 290°WNW
Pressure: 29.85"   Gusts: 25mph
Location:  39.59°N, 76.39°W
Report Text: KMTN 231255Z 29014G22KT 10SM BKN080 13/08 A2985
Loading
Personal Weather Stations






























Interactive Weather Map
Tropical Storm Tracking
New forecast layout! Learn more

10-Day Weather Forecast

Advertisements
Track Severe Weather on mobile